createdAt,value
2022-09-22T00:01:18.660Z,18.10
2022-09-22T00:03:52.158Z,17.92
2022-09-22T00:06:22.496Z,16.40
2022-09-22T00:08:53.780Z,19.10
2022-09-22T00:11:28.505Z,15.55
2022-09-22T00:14:04.178Z,16.75
2022-09-22T00:16:34.326Z,15.88
2022-09-22T00:19:01.227Z,16.88
2022-09-22T00:21:28.088Z,14.90
2022-09-22T00:23:55.103Z,16.35
2022-09-22T00:26:23.749Z,16.98
2022-09-22T00:28:51.711Z,16.83
2022-09-22T00:31:22.021Z,12.52
2022-09-22T00:33:49.947Z,14.85
2022-09-22T00:36:18.297Z,16.42
2022-09-22T00:38:46.636Z,14.40
2022-09-22T00:41:25.299Z,16.92
2022-09-22T00:44:26.920Z,14.75
2022-09-22T00:47:19.232Z,13.95
2022-09-22T00:50:20.480Z,16.45
2022-09-22T00:52:52.854Z,15.18
2022-09-22T00:55:47.608Z,16.10
2022-09-22T00:58:18.217Z,13.23
2022-09-22T01:00:45.216Z,12.52
2022-09-22T01:03:16.958Z,12.73
2022-09-22T01:05:46.350Z,13.63
2022-09-22T01:08:13.924Z,11.95
2022-09-22T01:10:40.889Z,12.23
2022-09-22T01:13:36.628Z,11.57
2022-09-22T01:16:30.378Z,12.52
2022-09-22T01:19:21.301Z,12.90
2022-09-22T01:22:17.431Z,13.88
2022-09-22T01:25:30.341Z,13.25
2022-09-22T01:28:33.090Z,13.05
2022-09-22T01:31:06.585Z,12.07
2022-09-22T01:33:39.576Z,12.87
2022-09-22T01:36:32.364Z,14.23
2022-09-22T01:39:14.464Z,14.27
2022-09-22T01:42:03.265Z,14.77
2022-09-22T01:44:55.249Z,14.95
2022-09-22T01:47:32.466Z,13.93
2022-09-22T01:50:06.030Z,15.98
2022-09-22T01:52:35.634Z,10.23
2022-09-22T01:55:46.930Z,12.38
2022-09-22T01:58:20.591Z,11.48
2022-09-22T02:00:56.853Z,9.70
2022-09-22T02:04:05.100Z,9.43
2022-09-22T02:06:44.769Z,11.25
2022-09-22T02:09:15.591Z,9.70
2022-09-22T02:11:42.858Z,10.10
2022-09-22T02:14:09.955Z,12.45
2022-09-22T02:16:36.831Z,14.55
2022-09-22T02:19:12.534Z,11.85
2022-09-22T02:21:42.113Z,9.23
2022-09-22T02:24:44.705Z,11.77
2022-09-22T02:27:27.430Z,7.35
2022-09-22T02:30:02.030Z,11.25
2022-09-22T02:32:30.817Z,9.75
2022-09-22T02:34:57.756Z,11.57
2022-09-22T02:37:44.666Z,13.30
2022-09-22T02:40:26.500Z,9.00
2022-09-22T02:43:21.946Z,10.98
2022-09-22T02:46:22.740Z,14.82
2022-09-22T02:48:57.898Z,10.10
2022-09-22T02:51:24.772Z,11.30
2022-09-22T02:53:51.667Z,10.73
2022-09-22T02:56:18.505Z,11.20
2022-09-22T02:58:45.305Z,14.68
2022-09-22T03:01:12.116Z,11.93
2022-09-22T03:03:39.268Z,8.20
2022-09-22T03:06:06.630Z,8.60
2022-09-22T03:08:33.437Z,10.70
2022-09-22T03:11:00.353Z,10.48
2022-09-22T03:13:27.295Z,10.18
2022-09-22T03:15:54.454Z,9.20
2022-09-22T03:18:21.260Z,12.18
2022-09-22T03:20:48.159Z,12.93
2022-09-22T03:23:15.015Z,14.52
2022-09-22T03:25:41.976Z,9.30
2022-09-22T03:28:09.069Z,12.70
2022-09-22T03:30:37.380Z,11.02
2022-09-22T03:33:04.340Z,9.82
2022-09-22T03:35:31.022Z,9.30
2022-09-22T03:37:57.860Z,9.73
2022-09-22T03:40:24.744Z,10.50
2022-09-22T03:42:51.600Z,11.13
2022-09-22T03:45:18.438Z,10.88
2022-09-22T03:47:46.571Z,12.63
2022-09-22T03:50:14.173Z,13.45
2022-09-22T03:52:43.410Z,9.55
2022-09-22T03:55:10.836Z,15.10
2022-09-22T03:57:37.742Z,13.15
2022-09-22T04:00:05.860Z,11.65
2022-09-22T04:02:38.793Z,14.23
2022-09-22T04:05:05.972Z,13.55
2022-09-22T04:07:33.423Z,24.02
2022-09-22T04:10:00.166Z,13.60
2022-09-22T04:12:26.969Z,11.25
2022-09-22T04:14:53.771Z,17.52
2022-09-22T04:17:20.641Z,13.55
2022-09-22T04:19:47.942Z,13.90
2022-09-22T04:22:14.776Z,18.08
2022-09-22T04:24:41.571Z,16.92
2022-09-22T04:27:19.701Z,19.95
2022-09-22T04:29:47.668Z,21.67
2022-09-22T04:32:14.640Z,25.50
2022-09-22T04:34:41.563Z,17.15
2022-09-22T04:37:08.535Z,18.58
2022-09-22T04:39:36.650Z,14.93
2022-09-22T04:42:04.534Z,32.33
2022-09-22T04:44:34.943Z,13.27
2022-09-22T04:47:02.847Z,15.60
2022-09-22T04:49:29.819Z,13.70
2022-09-22T04:51:56.585Z,16.75
2022-09-22T04:54:23.720Z,23.83
2022-09-22T04:56:50.498Z,41.47
2022-09-22T04:59:17.395Z,57.03
2022-09-22T05:01:44.302Z,45.88
2022-09-22T05:04:11.080Z,62.55
2022-09-22T05:06:38.540Z,58.78
2022-09-22T05:09:05.375Z,56.80
2022-09-22T05:11:32.858Z,45.55
2022-09-22T05:14:00.089Z,46.78
2022-09-22T05:16:26.977Z,36.17
2022-09-22T05:18:53.970Z,28.40
2022-09-22T05:21:20.816Z,21.90
2022-09-22T05:23:47.627Z,17.55
2022-09-22T05:26:14.470Z,16.77
2022-09-22T05:28:41.480Z,14.23
2022-09-22T05:31:08.390Z,10.27
2022-09-22T05:33:35.264Z,13.50
2022-09-22T05:36:02.392Z,10.98
2022-09-22T05:38:29.895Z,7.78
2022-09-22T05:40:56.682Z,12.65
2022-09-22T05:43:23.487Z,9.13
2022-09-22T05:45:50.329Z,6.75
2022-09-22T05:48:17.223Z,9.13
2022-09-22T05:50:45.514Z,10.05
2022-09-22T05:53:13.303Z,6.72
2022-09-22T05:55:41.154Z,10.15
2022-09-22T05:58:11.852Z,9.82
2022-09-22T06:00:40.551Z,10.13
2022-09-22T06:03:07.687Z,8.95
2022-09-22T06:05:37.410Z,13.32
2022-09-22T06:08:06.516Z,10.50
2022-09-22T06:10:35.465Z,9.05
2022-09-22T06:13:04.559Z,9.73
2022-09-22T06:15:33.988Z,8.20
2022-09-22T06:18:01.355Z,8.98
2022-09-22T06:20:28.243Z,19.08
2022-09-22T06:22:56.679Z,17.58
2022-09-22T06:25:23.984Z,11.95
2022-09-22T06:28:05.280Z,10.30
2022-09-22T06:30:33.347Z,8.77
2022-09-22T06:33:00.314Z,15.05
2022-09-22T06:35:35.399Z,12.45
2022-09-22T06:38:02.422Z,9.85
2022-09-22T06:40:29.318Z,15.18
2022-09-22T06:43:07.552Z,11.95
2022-09-22T06:45:34.556Z,8.88
2022-09-22T06:48:02.786Z,9.75
2022-09-22T06:50:32.841Z,14.48
2022-09-22T06:53:04.312Z,11.10
2022-09-22T06:55:31.943Z,9.75
2022-09-22T06:58:00.388Z,9.82
2022-09-22T07:00:34.572Z,11.32
2022-09-22T07:03:20.671Z,9.48
2022-09-22T07:06:01.123Z,11.15
2022-09-22T07:08:30.032Z,12.02
2022-09-22T07:11:02.326Z,9.20
2022-09-22T07:13:31.104Z,9.60
2022-09-22T07:16:08.001Z,8.20
2022-09-22T07:18:36.106Z,9.82
2022-09-22T07:21:11.894Z,9.75
2022-09-22T07:23:39.511Z,9.02
2022-09-22T07:26:08.501Z,7.45
2022-09-22T07:28:36.724Z,10.07
2022-09-22T07:31:14.623Z,9.18
2022-09-22T07:33:43.531Z,6.43
2022-09-22T07:36:12.221Z,7.57
2022-09-22T07:38:40.529Z,7.57
2022-09-22T07:41:12.133Z,8.02
2022-09-22T07:43:40.428Z,8.30
2022-09-22T07:46:08.148Z,9.52
2022-09-22T07:48:37.470Z,8.88
2022-09-22T07:51:16.473Z,10.30
2022-09-22T07:53:45.925Z,14.88
2022-09-22T07:56:15.543Z,8.25
2022-09-22T07:58:48.146Z,10.25
2022-09-22T08:01:14.985Z,9.20
2022-09-22T08:03:42.030Z,9.40
2022-09-22T08:06:11.212Z,7.90
2022-09-22T08:08:40.088Z,13.48
2022-09-22T08:11:08.848Z,6.03
2022-09-22T08:13:37.028Z,5.72
2022-09-22T08:16:05.406Z,7.72
2022-09-22T08:18:36.276Z,7.68
2022-09-22T08:21:03.307Z,4.57
2022-09-22T08:23:31.586Z,8.00
2022-09-22T08:26:06.763Z,10.00
2022-09-22T08:28:34.342Z,4.75
2022-09-22T08:31:02.170Z,10.23
2022-09-22T08:33:32.316Z,7.22
2022-09-22T08:36:04.003Z,3.25
2022-09-22T08:38:33.841Z,4.93
2022-09-22T08:41:37.955Z,4.35
2022-09-22T08:44:28.752Z,6.13
2022-09-22T08:47:00.893Z,6.45
2022-09-22T08:49:57.046Z,2.60
2022-09-22T08:52:41.237Z,2.67
2022-09-22T08:55:20.358Z,7.90
2022-09-22T08:57:59.463Z,2.13
2022-09-22T09:00:32.863Z,5.13
2022-09-22T09:03:41.145Z,3.57
2022-09-22T09:06:34.670Z,3.33
2022-09-22T09:09:10.513Z,38.15
2022-09-22T09:12:06.860Z,10.77
2022-09-22T09:14:58.554Z,2.63
2022-09-22T09:17:29.624Z,2.20
2022-09-22T09:20:12.732Z,4.53
2022-09-22T09:22:48.876Z,2.83
2022-09-22T09:25:24.304Z,4.28
2022-09-22T09:28:00.386Z,2.83
2022-09-22T09:30:32.357Z,2.30
2022-09-22T09:33:02.661Z,2.58
2022-09-22T09:35:45.332Z,17.25
2022-09-22T09:38:15.913Z,2.03
2022-09-22T09:40:49.532Z,6.65
2022-09-22T09:43:16.713Z,2.42
2022-09-22T09:46:02.185Z,3.92
2022-09-22T09:49:05.630Z,4.70
2022-09-22T09:51:40.385Z,14.13
2022-09-22T09:54:13.155Z,3.38
2022-09-22T09:57:27.666Z,1.90
2022-09-22T10:00:33.689Z,2.45
2022-09-22T10:03:11.423Z,1.63
2022-09-22T10:05:38.179Z,4.22
2022-09-22T10:08:15.501Z,5.18
2022-09-22T10:10:45.618Z,1.95
2022-09-22T10:13:15.982Z,2.25
2022-09-22T10:16:01.972Z,2.97
2022-09-22T10:18:57.347Z,4.22
2022-09-22T10:21:26.804Z,4.22
2022-09-22T10:23:55.847Z,2.30
2022-09-22T10:26:31.148Z,3.47
2022-09-22T10:29:13.028Z,6.10
2022-09-22T10:31:41.888Z,3.25
2022-09-22T10:34:31.379Z,4.82
2022-09-22T10:37:00.837Z,2.45
2022-09-22T10:39:36.886Z,2.13
2022-09-22T10:42:12.661Z,1.88
2022-09-22T10:44:42.828Z,3.05
2022-09-22T10:47:32.974Z,2.60
2022-09-22T10:50:35.910Z,2.50
2022-09-22T10:53:31.597Z,3.13
2022-09-22T10:56:05.739Z,2.83
2022-09-22T11:01:28.082Z,5.90
2022-09-22T11:04:35.421Z,3.92
2022-09-22T11:07:42.413Z,1.77
2022-09-22T11:10:57.585Z,3.05
2022-09-22T11:13:44.129Z,1.23
2022-09-22T11:16:55.015Z,0.93
2022-09-22T11:19:46.179Z,1.10
2022-09-22T11:22:30.115Z,1.02
2022-09-22T11:24:59.869Z,1.50
2022-09-22T11:27:53.582Z,1.20
2022-09-22T11:30:22.925Z,1.08
2022-09-22T11:33:02.302Z,1.27
2022-09-22T11:36:04.394Z,6.80
2022-09-22T11:39:00.212Z,1.85
2022-09-22T11:41:59.079Z,1.60
2022-09-22T11:44:50.737Z,5.60
2022-09-22T11:47:20.341Z,2.05
2022-09-22T11:50:05.338Z,1.02
2022-09-22T11:52:51.027Z,0.85
2022-09-22T11:55:47.150Z,1.38
2022-09-22T11:58:20.717Z,1.30
2022-09-22T12:00:54.951Z,2.47
2022-09-22T12:06:05.330Z,2.38
2022-09-22T12:08:38.427Z,6.00
2022-09-22T12:11:08.133Z,1.88
2022-09-22T12:13:37.736Z,2.95
2022-09-22T12:16:19.843Z,2.58
2022-09-22T12:19:20.140Z,1.13
2022-09-22T12:21:50.066Z,1.10
2022-09-22T12:24:17.028Z,0.85
2022-09-22T12:26:46.361Z,2.38
2022-09-22T12:29:19.318Z,1.70
2022-09-22T12:31:49.158Z,0.73
2022-09-22T12:34:21.146Z,2.05
2022-09-22T12:36:52.685Z,0.93
2022-09-22T12:39:32.818Z,0.73
2022-09-22T12:42:02.426Z,1.75
2022-09-22T12:44:34.652Z,0.98
2022-09-22T12:47:05.878Z,1.63
2022-09-22T12:49:33.473Z,1.30
2022-09-22T12:52:00.690Z,0.82
2022-09-22T12:54:35.076Z,0.47
2022-09-22T12:57:08.887Z,1.13
2022-09-22T12:59:36.794Z,3.10
2022-09-22T13:02:15.967Z,1.38
2022-09-22T13:04:55.409Z,0.70
2022-09-22T13:07:41.230Z,0.85
2022-09-22T13:10:23.474Z,0.65
2022-09-22T13:13:11.260Z,1.00
2022-09-22T13:15:51.131Z,0.95
2022-09-22T13:18:26.913Z,0.50
2022-09-22T13:20:53.694Z,1.08
2022-09-22T13:23:21.712Z,0.40
2022-09-22T13:25:49.583Z,0.80
2022-09-22T13:28:25.151Z,2.60
2022-09-22T13:31:06.285Z,3.60
2022-09-22T13:33:36.097Z,1.98
2022-09-22T13:36:15.675Z,0.45
2022-09-22T13:38:51.264Z,2.38
2022-09-22T13:41:24.095Z,1.52
2022-09-22T13:43:58.018Z,0.70
2022-09-22T13:46:41.369Z,1.05
2022-09-22T13:49:16.975Z,0.43
2022-09-22T13:51:50.529Z,1.48
2022-09-22T13:54:25.022Z,1.30
2022-09-22T13:56:52.297Z,0.43
2022-09-22T13:59:19.131Z,0.80
2022-09-22T14:01:53.601Z,0.82
2022-09-22T14:04:25.662Z,1.23
2022-09-22T14:06:57.243Z,1.25
2022-09-22T14:09:25.787Z,0.85
2022-09-22T14:11:53.824Z,0.80
2022-09-22T14:14:25.888Z,1.23
2022-09-22T14:16:57.076Z,1.20
2022-09-22T14:19:35.652Z,0.85
2022-09-22T14:22:14.208Z,1.70
2022-09-22T14:24:47.156Z,1.50
2022-09-22T14:27:20.702Z,4.15
2022-09-22T14:29:50.998Z,2.40
2022-09-22T14:32:18.158Z,2.75
2022-09-22T14:34:49.427Z,2.20
2022-09-22T14:37:29.274Z,2.72
2022-09-22T14:39:58.009Z,2.45
2022-09-22T14:42:30.717Z,5.65
2022-09-22T14:45:35.567Z,2.33
2022-09-22T14:48:19.646Z,1.33
2022-09-22T14:51:02.051Z,1.95
2022-09-22T14:53:35.007Z,2.33
2022-09-22T14:56:11.508Z,1.40
2022-09-22T14:58:43.549Z,5.20
2022-09-22T15:01:50.514Z,2.83
2022-09-22T15:04:32.805Z,1.35
2022-09-22T15:06:59.505Z,2.58
2022-09-22T15:09:37.678Z,2.53
2022-09-22T15:12:05.487Z,2.10
2022-09-22T15:14:42.029Z,3.05
2022-09-22T15:17:59.277Z,4.05
2022-09-22T15:20:46.211Z,2.30
2022-09-22T15:23:28.571Z,2.03
2022-09-22T15:25:56.455Z,2.08
2022-09-22T15:28:25.208Z,1.50
2022-09-22T15:30:52.968Z,1.38
2022-09-22T15:33:21.449Z,1.67
2022-09-22T15:35:53.097Z,4.30
2022-09-22T15:38:31.456Z,1.52
2022-09-22T15:40:59.731Z,1.52
2022-09-22T15:43:31.021Z,1.75
2022-09-22T15:46:04.434Z,2.72
2022-09-22T15:48:40.127Z,2.60
2022-09-22T15:51:12.907Z,1.85
2022-09-22T15:53:42.700Z,4.13
2022-09-22T15:56:19.315Z,4.90
2022-09-22T15:58:55.872Z,5.20
2022-09-22T16:01:25.065Z,2.03
2022-09-22T16:04:05.593Z,1.70
2022-09-22T16:06:32.758Z,1.70
2022-09-22T16:08:59.620Z,4.18
2022-09-22T16:11:30.379Z,4.75
2022-09-22T16:14:03.583Z,4.80
2022-09-22T16:16:33.025Z,5.77
2022-09-22T16:19:00.533Z,12.20
2022-09-22T16:21:29.843Z,13.32
2022-09-22T16:24:03.429Z,5.15
2022-09-22T16:26:31.915Z,8.60
2022-09-22T16:28:59.541Z,7.10
2022-09-22T16:31:27.206Z,2.60
2022-09-22T16:34:04.830Z,5.45
2022-09-22T16:36:34.031Z,3.90
2022-09-22T16:39:02.032Z,8.77
2022-09-22T16:41:33.662Z,8.57
2022-09-22T16:44:01.452Z,7.10
2022-09-22T16:46:34.748Z,4.47
2022-09-22T16:49:07.651Z,4.53
2022-09-22T16:51:37.006Z,5.60
2022-09-22T16:54:05.738Z,6.65
2022-09-22T16:56:35.501Z,6.63
2022-09-22T16:59:03.172Z,6.05
2022-09-22T17:01:31.772Z,16.23
2022-09-22T17:03:59.175Z,13.95
2022-09-22T17:06:26.698Z,9.27
2022-09-22T17:08:57.162Z,11.07
2022-09-22T17:11:34.661Z,8.15
2022-09-22T17:14:05.578Z,7.95
2022-09-22T17:16:38.581Z,8.90
2022-09-22T17:19:07.911Z,16.98
2022-09-22T17:21:37.261Z,16.48
2022-09-22T17:24:05.816Z,10.82
2022-09-22T17:26:47.361Z,11.52
2022-09-22T17:29:18.814Z,10.02
2022-09-22T17:31:49.343Z,11.98
2022-09-22T17:34:16.137Z,10.57
2022-09-22T17:36:42.909Z,12.18
2022-09-22T17:39:10.733Z,12.20
2022-09-22T17:41:45.495Z,9.20
2022-09-22T17:44:13.830Z,10.57
2022-09-22T17:47:00.560Z,10.85
2022-09-22T17:49:46.373Z,11.32
2022-09-22T17:52:34.395Z,16.52
2022-09-22T17:55:14.318Z,14.95
2022-09-22T17:57:43.864Z,9.07
2022-09-22T18:00:16.912Z,12.90
2022-09-22T18:02:43.932Z,13.38
2022-09-22T18:05:13.676Z,14.05
2022-09-22T18:07:42.056Z,16.35
2022-09-22T18:10:11.114Z,26.92
2022-09-22T18:12:37.931Z,21.17
2022-09-22T18:15:07.209Z,26.35
2022-09-22T18:17:42.955Z,15.30
2022-09-22T18:20:15.154Z,18.27
2022-09-22T18:22:48.106Z,12.45
2022-09-22T18:25:19.496Z,14.00
2022-09-22T18:27:48.638Z,12.70
2022-09-22T18:30:17.672Z,17.17
2022-09-22T18:32:44.461Z,15.70
2022-09-22T18:35:12.985Z,13.82
2022-09-22T18:37:40.377Z,16.88
2022-09-22T18:40:08.068Z,11.35
2022-09-22T18:42:36.779Z,10.18
2022-09-22T18:45:04.117Z,9.82
2022-09-22T18:47:30.857Z,9.40
2022-09-22T18:49:59.280Z,12.45
2022-09-22T18:52:26.274Z,16.05
2022-09-22T18:54:54.220Z,23.52
2022-09-22T18:57:23.112Z,25.25
2022-09-22T18:59:51.124Z,20.98
2022-09-22T19:02:21.687Z,21.38
2022-09-22T19:04:49.250Z,20.02
2022-09-22T19:07:38.946Z,21.35
2022-09-22T19:10:11.931Z,17.98
2022-09-22T19:12:41.903Z,22.85
2022-09-22T19:15:16.737Z,17.15
2022-09-22T19:17:45.527Z,17.30
2022-09-22T19:20:21.379Z,13.35
2022-09-22T19:22:50.327Z,20.35
2022-09-22T19:25:18.052Z,17.30
2022-09-22T19:27:44.897Z,13.48
2022-09-22T19:30:12.302Z,13.35
2022-09-22T19:32:40.941Z,15.27
2022-09-22T19:35:08.708Z,13.18
2022-09-22T19:37:36.501Z,14.55
2022-09-22T19:40:06.289Z,15.68
2022-09-22T19:42:39.986Z,17.25
2022-09-22T19:45:08.527Z,36.42
2022-09-22T19:47:35.338Z,19.15
2022-09-22T19:50:02.277Z,18.63
2022-09-22T19:52:29.636Z,17.83
2022-09-22T19:54:56.903Z,14.23
2022-09-22T19:57:24.168Z,15.75
2022-09-22T19:59:51.025Z,14.85
2022-09-22T20:02:20.832Z,19.83
2022-09-22T20:04:47.658Z,19.85
2022-09-22T20:07:14.663Z,15.52
2022-09-22T20:09:41.726Z,15.82
2022-09-22T20:12:08.548Z,14.32
2022-09-22T20:14:35.553Z,13.38
2022-09-22T20:17:06.797Z,13.77
2022-09-22T20:19:36.109Z,17.58
2022-09-22T20:22:27.758Z,14.65
2022-09-22T20:24:57.504Z,15.38
2022-09-22T20:27:29.628Z,12.68
2022-09-22T20:29:57.619Z,13.25
2022-09-22T20:32:34.737Z,14.57
2022-09-22T20:35:01.799Z,14.68
2022-09-22T20:37:30.102Z,24.77
2022-09-22T20:39:57.550Z,14.95
2022-09-22T20:42:24.637Z,14.75
2022-09-22T20:44:51.626Z,17.67
2022-09-22T20:47:21.291Z,16.63
2022-09-22T20:49:51.796Z,13.80
2022-09-22T20:52:20.230Z,11.77
2022-09-22T20:54:47.999Z,11.88
2022-09-22T20:57:15.407Z,15.93
2022-09-22T20:59:45.249Z,12.13
2022-09-22T21:02:15.257Z,11.15
2022-09-22T21:04:42.564Z,10.60
2022-09-22T21:07:11.281Z,9.10
2022-09-22T21:09:56.680Z,10.98
2022-09-22T21:12:30.055Z,11.02
2022-09-22T21:17:25.094Z,11.52
2022-09-22T21:19:51.854Z,10.77
2022-09-22T21:22:21.254Z,12.23
2022-09-22T21:24:48.833Z,13.13
2022-09-22T21:27:15.779Z,10.57
2022-09-22T21:29:42.838Z,12.88
2022-09-22T21:32:09.880Z,12.38
2022-09-22T21:34:36.795Z,12.32
2022-09-22T21:37:04.637Z,13.70
2022-09-22T21:39:31.361Z,12.30
2022-09-22T21:41:58.406Z,10.98
2022-09-22T21:44:25.153Z,13.93
2022-09-22T21:46:51.929Z,14.30
2022-09-22T21:49:18.750Z,10.52
2022-09-22T21:51:47.442Z,15.15
2022-09-22T21:54:18.703Z,13.93
2022-09-22T21:56:46.376Z,16.35
2022-09-22T21:59:14.127Z,17.65
2022-09-22T22:01:42.228Z,18.70
2022-09-22T22:04:10.407Z,13.48
2022-09-22T22:06:40.269Z,12.57
2022-09-22T22:09:15.243Z,12.63
2022-09-22T22:14:12.490Z,14.40
2022-09-22T22:16:47.574Z,13.75
2022-09-22T22:19:17.752Z,15.75
2022-09-22T22:21:45.281Z,15.57
2022-09-22T22:24:32.991Z,12.43
2022-09-22T22:27:09.744Z,12.93
2022-09-22T22:29:38.513Z,12.93
2022-09-22T22:32:08.834Z,13.40
2022-09-22T22:34:35.735Z,12.48
2022-09-22T22:37:03.997Z,19.38
2022-09-22T22:39:30.873Z,19.63
2022-09-22T22:41:57.668Z,12.27
2022-09-22T22:44:24.369Z,10.50
2022-09-22T22:46:51.263Z,9.50
2022-09-22T22:49:18.124Z,10.52
2022-09-22T22:51:44.956Z,10.07
2022-09-22T22:54:13.336Z,12.05
2022-09-22T22:56:42.364Z,8.38
2022-09-22T22:59:10.457Z,11.98
2022-09-22T23:01:37.604Z,9.65
2022-09-22T23:04:06.782Z,10.32
2022-09-22T23:06:36.322Z,9.52
2022-09-22T23:09:04.408Z,12.20
2022-09-22T23:11:36.005Z,14.20
2022-09-22T23:14:05.400Z,11.38
2022-09-22T23:16:43.480Z,13.55
2022-09-22T23:19:13.259Z,14.40
2022-09-22T23:21:40.656Z,10.35
2022-09-22T23:24:08.408Z,9.55
2022-09-22T23:26:37.293Z,13.85
2022-09-22T23:29:05.078Z,11.27
2022-09-22T23:31:32.242Z,9.82
2022-09-22T23:33:59.270Z,12.38
2022-09-22T23:36:28.216Z,12.43
2022-09-22T23:38:56.942Z,10.75
2022-09-22T23:41:24.182Z,10.68
2022-09-22T23:43:51.139Z,11.05
2022-09-22T23:46:18.242Z,14.20
2022-09-22T23:48:45.199Z,12.18
2022-09-22T23:51:12.011Z,11.60
2022-09-22T23:53:39.272Z,12.15
2022-09-22T23:56:07.176Z,13.63
2022-09-22T23:58:34.697Z,13.52
